Time;durP1;ratioP1;P1;durP2;ratioP2;P2;SDS_P1;SDS_P2;PMS_P1;PMS_P2;Temp;Humidity;BMP_temperature;BMP_pressure;BME280_temperature;BME280_humidity;BME280_pressure;Samples;Min_cycle;Max_cycle;Signal;HPM_P1;HPM_P2
2022/05/29 00:07:16;;;;;;;3.62;1.05;;;10.00;99.90;;;;;;6650198;89;20225;-79
2022/05/29 00:17:18;;;;;;;8.38;1.20;;;10.00;99.90;;;;;;6651606;89;20260;-79
2022/05/29 00:27:19;;;;;;;5.03;1.20;;;9.90;99.90;;;;;;6652864;89;20224;-78
2022/05/29 00:37:19;;;;;;;3.72;0.93;;;9.80;99.90;;;;;;6651582;89;20221;-78
2022/05/29 00:47:21;;;;;;;5.30;1.10;;;9.60;99.90;;;;;;6651577;89;20204;-79
2022/05/29 00:57:32;;;;;;;3.67;1.10;;;9.50;99.90;;;;;;6653807;89;20724;-79
2022/05/29 01:07:35;;;;;;;3.25;1.10;;;9.30;99.90;;;;;;6652756;89;20192;-78
2022/05/29 01:17:55;;;;;;;4.10;1.10;;;9.20;99.90;;;;;;6653261;89;20245;-78
2022/05/29 01:28:09;;;;;;;5.75;1.27;;;9.20;99.90;;;;;;6653328;89;20887;-78
2022/05/29 01:38:21;;;;;;;4.12;1.10;;;9.20;99.90;;;;;;6677924;89;20204;-78
2022/05/29 01:48:50;;;;;;;4.82;1.30;;;9.00;99.90;;;;;;6661116;89;20188;-78
2022/05/29 01:59:05;;;;;;;5.97;1.40;;;9.10;99.90;;;;;;6652574;89;20340;-78
2022/05/29 02:09:08;;;;;;;5.62;1.20;;;9.20;99.90;;;;;;6652401;89;20196;-78
2022/05/29 02:19:20;;;;;;;6.07;1.40;;;9.30;99.90;;;;;;6655116;89;20188;-79
2022/05/29 02:29:21;;;;;;;6.28;1.30;;;9.20;99.90;;;;;;6664694;89;20371;-78
2022/05/29 02:39:42;;;;;;;5.28;1.40;;;9.20;99.90;;;;;;6652535;89;20378;-78
2022/05/29 02:49:57;;;;;;;6.55;1.45;;;9.20;99.90;;;;;;6648668;89;20208;-78
2022/05/29 03:00:07;;;;;;;6.40;1.42;;;9.10;99.90;;;;;;6652990;89;20346;-78
2022/05/29 03:10:15;;;;;;;7.37;1.58;;;9.00;99.90;;;;;;6636199;89;20178;-78
2022/05/29 03:20:32;;;;;;;7.62;1.42;;;9.20;99.90;;;;;;6651153;89;20184;-79
2022/05/29 03:30:37;;;;;;;4.47;1.10;;;9.20;99.90;;;;;;6650142;89;20212;-78
2022/05/29 03:40:39;;;;;;;5.47;1.52;;;9.00;99.90;;;;;;6651639;89;20214;-78
2022/05/29 03:50:40;;;;;;;4.00;1.40;;;9.00;99.90;;;;;;6649911;89;20181;-79
2022/05/29 04:00:40;;;;;;;6.40;1.40;;;9.00;99.90;;;;;;6661683;89;20681;-79
2022/05/29 04:21:02;;;;;;;4.95;1.60;;;9.00;99.90;;;;;;6652235;89;20185;-78
2022/05/29 04:31:02;;;;;;;5.90;1.80;;;8.90;99.90;;;;;;6654077;89;20221;-79
2022/05/29 04:41:08;;;;;;;4.40;1.60;;;9.00;99.90;;;;;;6653221;89;20204;-78
2022/05/29 04:51:08;;;;;;;8.00;2.10;;;9.20;99.90;;;;;;6653514;89;20333;-79
2022/05/29 05:01:10;;;;;;;4.25;1.52;;;9.40;99.90;;;;;;6653933;89;20248;-78
2022/05/29 05:11:10;;;;;;;9.57;1.75;;;9.60;99.90;;;;;;6651077;89;20192;-78
2022/05/29 05:21:11;;;;;;;7.12;1.77;;;9.60;99.90;;;;;;6670802;89;20692;-78
2022/05/29 05:31:11;;;;;;;6.43;1.85;;;9.90;99.90;;;;;;6654536;89;20883;-78
2022/05/29 05:41:14;;;;;;;6.82;2.12;;;10.10;99.90;;;;;;6633573;89;20215;-78
2022/05/29 05:51:14;;;;;;;5.18;2.30;;;10.10;99.90;;;;;;6654269;89;20238;-79
2022/05/29 06:01:17;;;;;;;7.25;2.37;;;10.10;99.90;;;;;;6653969;89;20201;-78
2022/05/29 06:11:17;;;;;;;5.97;1.90;;;10.30;99.90;;;;;;6659299;89;20191;-79
2022/05/29 06:21:18;;;;;;;8.55;2.00;;;10.60;99.90;;;;;;6654317;89;20263;-79
2022/05/29 06:31:19;;;;;;;7.40;2.30;;;10.70;99.90;;;;;;6654145;89;20313;-77
2022/05/29 06:41:22;;;;;;;6.05;2.10;;;11.10;99.90;;;;;;6654022;89;20640;-77
2022/05/29 06:51:23;;;;;;;4.95;2.40;;;11.70;99.90;;;;;;6652601;89;20365;-78
2022/05/29 07:12:45;;;;;;;8.00;2.80;;;12.80;99.90;;;;;;6797341;86;20224;-78
2022/05/29 07:22:46;;;;;;;5.82;2.70;;;13.40;99.90;;;;;;6797918;87;20303;-78
2022/05/29 07:32:47;;;;;;;6.20;1.80;;;14.30;99.90;;;;;;6800746;87;20163;-79
2022/05/29 07:53:07;;;;;;;5.53;2.33;;;12.90;99.90;;;;;;6788966;87;20223;-78
2022/05/29 08:03:08;;;;;;;4.37;1.50;;;12.10;99.90;;;;;;6795291;87;20719;-77
2022/05/29 08:13:09;;;;;;;6.22;1.70;;;12.50;99.90;;;;;;6792959;87;20175;-78
2022/05/29 08:23:10;;;;;;;2.12;1.10;;;12.60;99.90;;;;;;6785189;87;20215;-78
2022/05/29 08:33:19;;;;;;;2.20;0.80;;;12.30;99.90;;;;;;6769725;87;20194;-78
2022/05/29 08:43:33;;;;;;;2.45;0.90;;;12.50;99.90;;;;;;6760960;88;20210;-78
2022/05/29 08:53:43;;;;;;;4.47;1.30;;;13.10;99.90;;;;;;6766581;87;20227;-79
2022/05/29 09:04:09;;;;;;;2.97;1.55;;;12.90;99.90;;;;;;6777764;87;20265;-77
2022/05/29 09:14:23;;;;;;;3.58;2.10;;;13.60;99.90;;;;;;6776728;87;20179;-79
2022/05/29 09:24:32;;;;;;;4.70;1.30;;;13.90;99.90;;;;;;6757910;88;20843;-78
2022/05/29 09:34:33;;;;;;;3.55;0.73;;;14.70;99.90;;;;;;6773091;87;20273;-79
2022/05/29 09:44:34;;;;;;;2.28;0.70;;;15.70;99.90;;;;;;6773831;87;20244;-80
2022/05/29 09:54:38;;;;;;;2.20;0.90;;;15.70;99.90;;;;;;6773061;87;20287;-80
2022/05/29 10:04:41;;;;;;;3.65;1.00;;;17.50;99.90;;;;;;6774674;87;20199;-80
2022/05/29 10:14:43;;;;;;;2.90;1.00;;;18.60;98.60;;;;;;6774805;87;20202;-80
2022/05/29 10:24:44;;;;;;;3.42;1.20;;;18.60;98.00;;;;;;6779120;87;20322;-79
2022/05/29 10:34:45;;;;;;;1.98;1.10;;;18.10;98.00;;;;;;6774810;87;20202;-80
2022/05/29 10:44:46;;;;;;;1.80;1.00;;;18.60;95.60;;;;;;6778869;87;20270;-79
2022/05/29 10:55:09;;;;;;;4.57;1.35;;;17.70;96.70;;;;;;6785224;87;20273;-80
2022/05/29 11:05:17;;;;;;;3.53;1.33;;;18.30;96.40;;;;;;6765685;87;20201;-79
2022/05/29 11:15:38;;;;;;;2.78;1.52;;;17.40;97.00;;;;;;6774127;87;20231;-79
2022/05/29 11:25:41;;;;;;;3.90;1.90;;;17.00;98.40;;;;;;6756078;87;20301;-78
2022/05/29 11:35:58;;;;;;;6.60;2.50;;;19.40;95.00;;;;;;6774107;87;20215;-78
2022/05/29 11:56:49;;;;;;;3.40;1.45;;;15.60;99.90;;;;;;6776850;87;20215;-79
2022/05/29 12:06:59;;;;;;;3.40;1.40;;;15.90;99.90;;;;;;6772940;87;20400;-79
2022/05/29 12:17:10;;;;;;;2.35;1.17;;;15.90;99.90;;;;;;6770624;87;20558;-80
2022/05/29 12:27:33;;;;;;;2.87;1.20;;;17.90;97.90;;;;;;6769521;76;20185;-78
2022/05/29 12:38:01;;;;;;;3.45;1.40;;;17.90;96.50;;;;;;6709162;88;20201;-78
2022/05/29 12:48:38;;;;;;;2.97;1.30;;;17.20;98.40;;;;;;6706938;88;20235;-78
2022/05/29 12:58:57;;;;;;;2.67;1.08;;;16.40;99.60;;;;;;6705159;88;20190;-78
2022/05/29 13:09:16;;;;;;;2.85;1.10;;;16.00;99.90;;;;;;6702858;88;20214;-77
2022/05/29 13:19:17;;;;;;;1.95;1.05;;;15.90;99.90;;;;;;6704409;88;20194;-78
2022/05/29 13:29:40;;;;;;;2.17;1.10;;;15.00;99.90;;;;;;6706176;88;20220;-79
2022/05/29 13:40:04;;;;;;;2.25;1.10;;;14.50;99.90;;;;;;6717948;88;20197;-79
2022/05/29 13:50:11;;;;;;;2.92;1.25;;;15.20;99.90;;;;;;6709600;88;21699;-79
2022/05/29 14:10:31;;;;;;;3.22;0.90;;;19.60;99.90;;;;;;6704444;88;20226;-79
2022/05/29 14:20:34;;;;;;;2.70;1.10;;;20.10;98.50;;;;;;6701541;88;20203;-77
2022/05/29 14:30:46;;;;;;;2.72;1.02;;;19.50;99.90;;;;;;6709564;88;20706;-77
2022/05/29 14:40:55;;;;;;;3.03;1.35;;;18.50;99.90;;;;;;6701087;88;20188;-79
2022/05/29 14:51:00;;;;;;;2.17;1.65;;;16.60;99.90;;;;;;6718281;88;20239;-79
2022/05/29 15:01:24;;;;;;;2.90;1.50;;;15.80;99.90;;;;;;6704386;88;20199;-79
2022/05/29 15:11:25;;;;;;;1.87;1.27;;;16.00;99.90;;;;;;6711955;88;20212;-79
2022/05/29 15:31:48;;;;;;;2.40;0.82;;;14.80;99.90;;;;;;6717807;88;21112;-79
2022/05/29 15:42:03;;;;;;;3.20;1.10;;;14.20;99.90;;;;;;6721142;88;20184;-79
2022/05/29 15:52:29;;;;;;;4.33;2.20;;;13.50;99.90;;;;;;6710651;88;20187;-79
2022/05/29 16:03:00;;;;;;;4.28;2.55;;;12.40;99.90;;;;;;6715614;88;20181;-79
2022/05/29 16:13:03;;;;;;;3.55;2.35;;;11.70;99.90;;;;;;6696170;88;20199;-78
2022/05/29 16:23:29;;;;;;;3.37;2.15;;;11.80;99.90;;;;;;6710821;88;20204;-78
2022/05/29 16:33:37;;;;;;;3.05;1.60;;;12.20;99.90;;;;;;6709436;88;20191;-79
2022/05/29 16:54:42;;;;;;;2.10;1.65;;;12.50;99.90;;;;;;6689230;88;20261;-78
2022/05/29 17:05:03;;;;;;;2.25;1.10;;;12.40;99.90;;;;;;6688820;88;20204;-78
2022/05/29 17:15:04;;;;;;;1.75;1.10;;;12.10;99.90;;;;;;6691607;88;20182;-79
2022/05/29 17:25:14;;;;;;;2.10;1.23;;;12.30;99.90;;;;;;6688159;88;20316;-78
2022/05/29 17:35:19;;;;;;;3.35;1.60;;;12.10;99.90;;;;;;6688079;88;20688;-80
2022/05/29 17:45:19;;;;;;;2.22;1.45;;;12.00;99.90;;;;;;6712522;88;20244;-80
2022/05/29 17:55:20;;;;;;;2.20;1.27;;;11.90;99.90;;;;;;6720035;88;20174;-80
2022/05/29 18:05:23;;;;;;;3.45;1.50;;;12.10;99.90;;;;;;6708939;88;20220;-79
2022/05/29 18:15:26;;;;;;;2.08;1.50;;;11.80;99.90;;;;;;6704118;88;20650;-79
2022/05/29 18:25:54;;;;;;;2.92;1.45;;;11.60;99.90;;;;;;6729099;77;20304;-79
2022/05/29 18:35:55;;;;;;;3.28;1.50;;;11.60;99.90;;;;;;6734718;88;20752;-81
2022/05/29 18:45:56;;;;;;;2.75;1.50;;;11.40;99.90;;;;;;6724816;88;20193;-79
2022/05/29 18:55:57;;;;;;;4.53;1.50;;;11.30;99.90;;;;;;6733074;88;21008;-83
2022/05/29 19:05:58;;;;;;;4.65;1.62;;;11.10;99.90;;;;;;6724227;88;20264;-81
2022/05/29 19:16:09;;;;;;;2.60;1.50;;;11.10;99.90;;;;;;6728012;88;20212;-78
2022/05/29 19:26:13;;;;;;;4.20;1.80;;;11.00;99.90;;;;;;6725009;88;20262;-82
2022/05/29 19:36:15;;;;;;;2.42;1.42;;;11.00;99.90;;;;;;6700824;88;20235;-79
2022/05/29 19:46:22;;;;;;;2.33;1.20;;;10.80;99.90;;;;;;6707759;88;20198;-80
2022/05/29 19:56:23;;;;;;;3.30;1.50;;;10.90;99.90;;;;;;6711586;88;20645;-82
2022/05/29 20:06:29;;;;;;;1.75;1.20;;;10.80;99.90;;;;;;6705368;88;20197;-78
2022/05/29 20:16:35;;;;;;;2.90;1.30;;;10.80;99.90;;;;;;6706044;88;20193;-77
2022/05/29 20:26:35;;;;;;;;;;;10.70;99.90;;;;;;6692734;88;20704;-78
2022/05/29 20:36:38;;;;;;;3.42;1.12;;;10.80;99.90;;;;;;6691344;88;20054;-78
2022/05/29 20:57:01;;;;;;;3.37;1.55;;;10.60;99.90;;;;;;6701483;88;20749;-80
2022/05/29 21:07:02;;;;;;;4.00;1.30;;;10.50;99.90;;;;;;6697392;88;20223;-78
2022/05/29 21:17:04;;;;;;;3.15;1.42;;;10.70;99.90;;;;;;6694890;88;20260;-79
2022/05/29 21:27:05;;;;;;;2.55;1.25;;;10.60;99.90;;;;;;6692078;88;20194;-79
2022/05/29 21:47:24;;;;;;;4.62;1.73;;;10.50;99.90;;;;;;6718778;88;20210;-79
2022/05/29 21:57:25;;;;;;;3.37;1.60;;;10.30;99.90;;;;;;6720700;88;20807;-81
2022/05/29 22:07:25;;;;;;;3.20;1.60;;;10.20;99.90;;;;;;6719436;88;20537;-80
2022/05/29 22:17:27;;;;;;;3.05;1.80;;;10.10;99.90;;;;;;6714453;88;20995;-80
2022/05/29 22:27:28;;;;;;;4.07;1.75;;;10.10;99.90;;;;;;6712154;88;20210;-79
2022/05/29 22:37:29;;;;;;;4.47;1.98;;;10.00;99.90;;;;;;6715442;88;21068;-79
2022/05/29 22:47:30;;;;;;;5.18;2.03;;;10.00;99.90;;;;;;6717243;88;20182;-79
2022/05/29 22:57:31;;;;;;;3.35;1.83;;;10.00;99.90;;;;;;6703978;88;20242;-81
2022/05/29 23:07:32;;;;;;;5.90;2.10;;;10.10;99.90;;;;;;6701308;89;20692;-79
2022/05/29 23:17:35;;;;;;;4.28;1.83;;;10.30;99.90;;;;;;6698754;89;20237;-80
2022/05/29 23:27:36;;;;;;;4.95;1.87;;;10.30;99.90;;;;;;6693760;89;20325;-79
2022/05/29 23:37:39;;;;;;;5.57;2.15;;;10.20;99.90;;;;;;6692848;89;20193;-80
2022/05/29 23:47:49;;;;;;;4.53;1.92;;;10.30;99.90;;;;;;6696742;88;20498;-79
2022/05/29 23:57:51;;;;;;;4.12;2.30;;;10.10;99.90;;;;;;6710480;88;20233;-79
